Time;durP1;ratioP1;P1;durP2;ratioP2;P2;SDS_P1;SDS_P2;PMS_P1;PMS_P2;Temp;Humidity;BMP_temperature;BMP_pressure;BME280_temperature;BME280_humidity;BME280_pressure;Samples;Min_cycle;Max_cycle;Signal;HPM_P1;HPM_P2
2021/12/26 00:00:46;;;;;;;3.50;3.20;;;0.60;99.90;;;;;;5050417;28;20402;-79
2021/12/26 00:03:32;;;;;;;5.30;3.17;;;0.60;99.90;;;;;;5051234;28;20398;-79
2021/12/26 00:06:22;;;;;;;2.10;1.90;;;0.60;99.90;;;;;;5050879;28;20418;-79
2021/12/26 00:09:07;;;;;;;3.13;2.47;;;0.50;99.90;;;;;;5050820;28;20732;-79
2021/12/26 00:11:52;;;;;;;2.70;2.50;;;0.60;99.90;;;;;;5050998;28;20398;-79
2021/12/26 00:14:36;;;;;;;6.93;3.27;;;0.80;99.90;;;;;;5048129;28;20399;-79
2021/12/26 00:17:21;;;;;;;3.00;2.80;;;0.60;99.90;;;;;;5048602;28;20395;-79
2021/12/26 00:20:09;;;;;;;2.70;2.50;;;0.60;99.90;;;;;;5048475;28;20489;-79
2021/12/26 00:22:53;;;;;;;2.77;2.57;;;0.40;99.90;;;;;;5048297;28;20434;-79
2021/12/26 00:25:38;;;;;;;5.47;2.47;;;0.50;99.90;;;;;;5050896;28;20387;-79
2021/12/26 00:28:23;;;;;;;3.93;3.53;;;0.60;99.90;;;;;;5051260;28;20454;-79
2021/12/26 00:31:08;;;;;;;2.23;1.97;;;0.60;99.90;;;;;;5050244;28;20406;-79
2021/12/26 00:33:53;;;;;;;3.90;2.50;;;0.50;99.90;;;;;;5051811;28;20394;-79
2021/12/26 00:36:37;;;;;;;3.70;1.83;;;0.50;99.90;;;;;;5054845;28;20722;-79
2021/12/26 00:39:22;;;;;;;6.57;3.87;;;0.50;99.90;;;;;;5056260;28;20389;-79
2021/12/26 00:42:07;;;;;;;2.63;2.40;;;0.50;99.90;;;;;;5056282;28;20414;-79
2021/12/26 00:44:52;;;;;;;3.47;2.83;;;0.60;99.90;;;;;;5059388;28;20470;-79
2021/12/26 00:47:37;;;;;;;2.20;2.10;;;0.70;99.90;;;;;;5067395;28;20494;-79
2021/12/26 00:50:26;;;;;;;2.20;2.00;;;0.70;99.90;;;;;;5069292;28;20405;-79
2021/12/26 00:53:11;;;;;;;6.60;2.80;;;0.80;99.90;;;;;;5067195;28;20466;-79
2021/12/26 00:55:56;;;;;;;6.33;3.37;;;0.60;99.90;;;;;;5068437;28;20421;-79
2021/12/26 00:58:41;;;;;;;2.20;1.87;;;0.70;99.90;;;;;;5075753;28;20512;-79
2021/12/26 01:01:25;;;;;;;4.70;2.57;;;0.60;99.90;;;;;;5072451;28;20481;-79
2021/12/26 01:04:12;;;;;;;8.73;2.93;;;0.80;99.90;;;;;;5071404;28;20365;-79
2021/12/26 01:06:56;;;;;;;4.30;2.73;;;0.80;99.90;;;;;;5072807;28;20568;-79
2021/12/26 01:09:45;;;;;;;2.83;2.10;;;0.90;99.90;;;;;;5071962;28;20425;-79
2021/12/26 01:12:30;;;;;;;3.17;2.47;;;0.90;99.90;;;;;;5067980;28;20420;-79
2021/12/26 01:15:15;;;;;;;5.10;3.63;;;1.10;99.90;;;;;;5047264;28;20438;-79
2021/12/26 01:18:00;;;;;;;3.60;2.90;;;0.90;99.90;;;;;;5046921;28;20394;-79
2021/12/26 01:20:55;;;;;;;2.33;2.23;;;0.70;99.90;;;;;;5047481;28;20414;-79
2021/12/26 01:23:39;;;;;;;4.17;2.67;;;0.80;99.90;;;;;;5045861;28;20410;-79
2021/12/26 01:26:24;;;;;;;1.77;1.67;;;0.90;99.90;;;;;;5047236;28;20446;-79
2021/12/26 01:29:09;;;;;;;3.20;1.67;;;0.80;99.90;;;;;;5048528;28;20394;-79
2021/12/26 01:31:54;;;;;;;3.60;3.07;;;0.90;99.90;;;;;;5047983;28;20406;-79
2021/12/26 01:34:38;;;;;;;2.30;2.10;;;0.90;99.90;;;;;;5047019;28;20386;-79
2021/12/26 01:37:23;;;;;;;4.63;2.97;;;1.10;99.90;;;;;;5045631;28;20452;-79
2021/12/26 01:40:08;;;;;;;3.03;2.10;;;1.10;99.90;;;;;;5046858;28;20402;-79
2021/12/26 01:42:53;;;;;;;3.87;2.50;;;1.10;99.90;;;;;;5046880;28;20410;-80
2021/12/26 01:45:38;;;;;;;2.77;1.97;;;1.10;99.90;;;;;;5047160;28;20549;-79
2021/12/26 01:48:23;;;;;;;2.47;2.27;;;1.10;99.90;;;;;;5046454;28;20507;-79
2021/12/26 01:51:07;;;;;;;2.60;2.40;;;1.10;99.90;;;;;;5047103;28;20413;-79
2021/12/26 01:53:52;;;;;;;8.03;2.80;;;1.30;99.90;;;;;;5047676;28;20391;-79
2021/12/26 01:56:39;;;;;;;4.47;3.23;;;1.00;99.90;;;;;;5047176;28;20422;-79
2021/12/26 01:59:23;;;;;;;3.60;2.70;;;0.80;99.90;;;;;;5046223;28;20414;-79
2021/12/26 02:02:10;;;;;;;3.13;2.80;;;0.70;99.90;;;;;;5047001;28;20385;-79
2021/12/26 02:04:54;;;;;;;2.50;2.30;;;0.80;99.90;;;;;;5046875;28;20386;-79
2021/12/26 02:07:39;;;;;;;2.70;2.43;;;0.90;99.90;;;;;;5047615;28;21019;-79
2021/12/26 02:10:23;;;;;;;3.73;2.50;;;0.90;99.90;;;;;;5049383;28;20398;-79
2021/12/26 02:13:08;;;;;;;2.17;1.97;;;0.90;99.90;;;;;;5052683;28;20419;-79
2021/12/26 02:15:53;;;;;;;2.60;2.40;;;0.80;99.90;;;;;;5055230;28;20418;-78
2021/12/26 02:18:38;;;;;;;3.00;2.43;;;0.70;99.90;;;;;;5055353;28;20403;-79
2021/12/26 02:21:47;;;;;;;3.53;2.30;;;0.70;99.90;;;;;;5051835;28;20397;-79
2021/12/26 02:25:06;;;;;;;3.40;2.40;;;0.70;99.90;;;;;;5045237;28;20402;-79
2021/12/26 02:27:32;;;;;;;2.77;2.57;;;0.50;99.90;;;;;;5043448;28;20465;-79
2021/12/26 02:30:17;;;;;;;2.43;1.80;;;0.80;99.90;;;;;;5044492;28;20449;-79
2021/12/26 02:33:04;;;;;;;2.80;2.57;;;0.80;99.90;;;;;;5046785;28;20390;-79
2021/12/26 02:35:49;;;;;;;2.93;2.50;;;0.80;99.90;;;;;;5047468;28;20709;-79
2021/12/26 02:38:35;;;;;;;7.80;3.03;;;0.80;99.90;;;;;;5050273;28;20387;-79
2021/12/26 02:41:20;;;;;;;3.13;2.80;;;0.90;99.90;;;;;;5051483;28;20369;-79
2021/12/26 02:44:05;;;;;;;6.83;2.90;;;0.80;99.90;;;;;;5050313;28;20690;-79
2021/12/26 02:46:51;;;;;;;5.60;2.97;;;1.00;99.90;;;;;;5049295;28;20481;-79
2021/12/26 02:49:35;;;;;;;3.83;3.60;;;1.00;99.90;;;;;;5049767;28;20395;-79
2021/12/26 02:52:20;;;;;;;4.30;3.53;;;0.70;99.90;;;;;;5048436;28;20391;-79
2021/12/26 02:55:07;;;;;;;3.43;2.97;;;0.70;99.90;;;;;;5049858;28;20406;-79
2021/12/26 02:57:55;;;;;;;7.83;3.57;;;0.90;99.90;;;;;;5050314;28;20446;-79
2021/12/26 03:00:45;;;;;;;3.90;3.00;;;0.80;99.90;;;;;;5050149;28;20383;-80
2021/12/26 03:03:30;;;;;;;3.30;2.00;;;0.80;99.90;;;;;;5051027;28;20395;-79
2021/12/26 03:06:30;;;;;;;2.93;2.50;;;0.80;99.90;;;;;;5048927;28;20418;-79
2021/12/26 03:09:15;;;;;;;3.27;2.10;;;0.70;99.90;;;;;;5049396;28;20406;-79
2021/12/26 03:11:59;;;;;;;2.33;2.00;;;0.70;99.90;;;;;;5049504;28;20378;-79
2021/12/26 03:14:45;;;;;;;5.10;3.53;;;0.60;99.90;;;;;;5049759;28;20369;-80
2021/12/26 03:17:29;;;;;;;9.50;2.93;;;0.60;99.90;;;;;;5052881;28;20459;-79
2021/12/26 03:20:19;;;;;;;3.30;3.00;;;0.70;99.90;;;;;;5053740;28;20394;-79
2021/12/26 03:23:05;;;;;;;6.67;3.20;;;0.70;99.90;;;;;;5052141;28;20724;-79
2021/12/26 03:25:53;;;;;;;4.67;2.43;;;0.80;99.90;;;;;;5053065;28;20852;-79
2021/12/26 03:28:38;;;;;;;4.20;3.30;;;0.70;99.90;;;;;;5052150;28;20448;-79
2021/12/26 03:31:22;;;;;;;7.63;2.80;;;0.60;99.90;;;;;;5049051;28;20395;-79
2021/12/26 03:34:08;;;;;;;3.10;2.03;;;0.80;99.90;;;;;;5048260;28;20387;-79
2021/12/26 03:36:56;;;;;;;3.90;3.50;;;0.70;99.90;;;;;;5052535;28;20425;-79
2021/12/26 03:39:40;;;;;;;3.37;3.07;;;0.80;99.90;;;;;;5051704;28;20459;-79
2021/12/26 03:42:25;;;;;;;7.37;2.80;;;1.00;99.90;;;;;;5048680;28;20455;-79
2021/12/26 03:45:10;;;;;;;6.27;3.30;;;1.10;99.90;;;;;;5048664;28;20473;-79
2021/12/26 03:47:55;;;;;;;4.37;2.57;;;1.10;99.90;;;;;;5048239;28;20420;-79
2021/12/26 03:50:41;;;;;;;4.03;2.83;;;1.30;99.90;;;;;;5048709;28;20398;-79
2021/12/26 03:53:25;;;;;;;7.33;3.73;;;1.10;99.90;;;;;;5048899;28;20530;-79
2021/12/26 03:56:10;;;;;;;6.10;2.90;;;1.10;99.90;;;;;;5048814;28;20374;-79
2021/12/26 03:58:54;;;;;;;4.30;2.57;;;1.30;99.90;;;;;;5049073;28;20426;-79
2021/12/26 04:01:39;;;;;;;2.53;2.30;;;1.30;99.90;;;;;;5049314;28;20419;-79
2021/12/26 04:04:25;;;;;;;9.70;3.67;;;1.10;99.90;;;;;;5049068;28;20394;-79
2021/12/26 04:07:11;;;;;;;6.47;5.17;;;1.30;99.90;;;;;;5048719;28;20533;-79
2021/12/26 04:09:55;;;;;;;4.10;3.70;;;1.10;99.90;;;;;;5048426;28;20430;-79
2021/12/26 04:12:45;;;;;;;5.30;4.20;;;1.00;99.90;;;;;;5048413;28;20365;-79
2021/12/26 04:15:30;;;;;;;6.23;4.57;;;0.90;99.90;;;;;;5048653;28;20414;-79
2021/12/26 04:18:14;;;;;;;6.27;3.83;;;1.00;99.90;;;;;;5046809;28;20399;-79
2021/12/26 04:20:59;;;;;;;6.90;2.63;;;0.80;99.90;;;;;;5075366;28;20391;-79
2021/12/26 04:23:44;;;;;;;5.23;4.13;;;1.00;99.90;;;;;;5047573;28;20449;-79
2021/12/26 04:26:29;;;;;;;5.20;3.27;;;0.90;99.90;;;;;;5047701;28;20474;-79
2021/12/26 04:29:14;;;;;;;5.57;3.53;;;1.00;99.90;;;;;;5047661;28;20369;-79
2021/12/26 04:31:58;;;;;;;3.60;3.00;;;1.20;99.90;;;;;;5047435;28;20387;-79
2021/12/26 04:34:43;;;;;;;3.27;2.87;;;1.30;99.90;;;;;;5047573;28;20807;-79
2021/12/26 04:37:28;;;;;;;5.23;3.53;;;1.20;99.90;;;;;;5048698;28;20981;-79
2021/12/26 04:40:14;;;;;;;3.70;2.70;;;1.40;99.90;;;;;;5047766;28;20430;-79
2021/12/26 04:42:59;;;;;;;4.23;3.27;;;1.20;99.90;;;;;;5047608;28;20373;-79
2021/12/26 04:45:44;;;;;;;7.87;3.20;;;1.40;99.90;;;;;;5049930;28;20469;-79
2021/12/26 04:48:29;;;;;;;4.50;3.50;;;1.30;99.90;;;;;;5066787;28;20546;-79
2021/12/26 04:51:14;;;;;;;3.97;2.50;;;1.40;99.90;;;;;;5068579;28;20476;-79
2021/12/26 04:53:59;;;;;;;9.70;5.80;;;1.50;99.90;;;;;;5067067;28;20377;-80
2021/12/26 04:56:43;;;;;;;5.30;4.20;;;1.50;99.90;;;;;;5067838;28;20217;-79
2021/12/26 04:59:28;;;;;;;5.20;3.60;;;1.50;99.90;;;;;;5067781;28;20444;-79
2021/12/26 05:02:13;;;;;;;4.37;2.77;;;1.50;99.90;;;;;;5067061;28;20368;-79
2021/12/26 05:04:58;;;;;;;4.23;3.80;;;1.60;99.90;;;;;;5066499;28;20373;-79
2021/12/26 05:07:43;;;;;;;6.33;4.20;;;1.40;99.90;;;;;;5065863;28;20444;-79
2021/12/26 05:10:29;;;;;;;7.60;4.20;;;1.30;99.90;;;;;;5067022;28;20409;-79
2021/12/26 05:13:13;;;;;;;7.83;3.80;;;1.40;99.90;;;;;;5067884;28;20524;-79
2021/12/26 05:15:58;;;;;;;5.23;4.73;;;1.40;99.90;;;;;;5068459;28;20421;-79
2021/12/26 05:18:43;;;;;;;3.97;3.60;;;1.20;99.90;;;;;;5067297;28;20402;-79
2021/12/26 05:21:27;;;;;;;6.40;5.67;;;1.20;99.90;;;;;;5067519;28;20425;-79
2021/12/26 05:24:12;;;;;;;5.93;4.23;;;1.00;99.90;;;;;;5068202;28;20394;-79
2021/12/26 05:26:57;;;;;;;5.50;4.23;;;1.30;99.90;;;;;;5067110;28;20453;-79
2021/12/26 05:29:41;;;;;;;6.23;4.40;;;1.30;99.90;;;;;;5067400;28;20387;-79
2021/12/26 05:32:26;;;;;;;3.83;3.50;;;1.30;99.90;;;;;;5066078;28;20389;-79
2021/12/26 05:35:13;;;;;;;6.53;4.80;;;1.30;99.90;;;;;;5067703;28;20384;-79
2021/12/26 05:37:58;;;;;;;8.07;4.10;;;1.30;99.90;;;;;;5066803;28;20749;-79
2021/12/26 05:40:43;;;;;;;3.93;3.10;;;1.30;99.90;;;;;;5068178;28;20406;-79
2021/12/26 05:43:27;;;;;;;5.93;4.63;;;1.20;99.90;;;;;;5068998;28;20368;-79
2021/12/26 05:46:12;;;;;;;7.47;4.93;;;1.20;99.90;;;;;;5068539;28;20453;-79
2021/12/26 05:48:59;;;;;;;5.43;4.10;;;1.30;99.90;;;;;;5067669;28;20433;-79
2021/12/26 05:51:44;;;;;;;4.50;4.07;;;1.30;99.90;;;;;;5070622;28;20433;-79
2021/12/26 05:54:28;;;;;;;6.80;4.80;;;1.40;99.90;;;;;;5072289;28;20460;-79
2021/12/26 05:57:13;;;;;;;6.63;3.63;;;1.20;99.90;;;;;;5073548;28;20386;-79
2021/12/26 05:59:58;;;;;;;5.13;4.73;;;1.10;99.90;;;;;;5073251;28;20528;-80
2021/12/26 06:02:43;;;;;;;6.30;4.53;;;1.10;99.90;;;;;;5070903;28;20437;-80
2021/12/26 06:05:28;;;;;;;5.50;4.53;;;1.10;99.90;;;;;;5069967;28;20386;-79
2021/12/26 06:08:12;;;;;;;7.70;5.20;;;1.30;99.90;;;;;;5069610;28;20442;-80
2021/12/26 06:10:57;;;;;;;4.43;4.00;;;1.20;99.90;;;;;;5068951;28;20895;-80
2021/12/26 06:13:42;;;;;;;8.93;6.00;;;1.10;99.90;;;;;;5068273;28;20405;-79
2021/12/26 06:16:26;;;;;;;6.80;4.20;;;1.20;99.90;;;;;;5068567;28;20453;-78
2021/12/26 06:19:11;;;;;;;7.13;5.77;;;1.30;99.90;;;;;;5063196;28;20390;-79
2021/12/26 06:21:55;;;;;;;8.93;5.70;;;1.30;99.90;;;;;;5066306;28;20420;-79
2021/12/26 06:24:40;;;;;;;10.60;5.90;;;1.40;99.90;;;;;;5065561;28;20445;-79
2021/12/26 06:27:26;;;;;;;5.37;4.80;;;1.70;99.90;;;;;;5065288;28;20448;-79
2021/12/26 06:30:12;;;;;;;5.50;4.83;;;1.60;99.90;;;;;;5066078;28;20683;-79
2021/12/26 06:32:57;;;;;;;4.20;3.70;;;1.50;99.90;;;;;;5070671;28;20404;-79
2021/12/26 06:35:42;;;;;;;11.40;4.37;;;1.30;99.90;;;;;;5068656;28;20474;-79
2021/12/26 06:38:26;;;;;;;7.73;6.00;;;1.10;99.90;;;;;;5066435;28;20429;-79
2021/12/26 06:41:12;;;;;;;9.93;6.17;;;1.10;99.90;;;;;;5064822;28;20372;-79
2021/12/26 06:43:57;;;;;;;4.13;3.70;;;1.00;99.90;;;;;;5066106;28;20401;-79
2021/12/26 06:46:41;;;;;;;11.43;5.90;;;1.00;99.90;;;;;;5063008;28;20527;-79
2021/12/26 06:49:26;;;;;;;8.40;6.10;;;1.00;99.90;;;;;;5064877;28;20857;-79
2021/12/26 06:52:11;;;;;;;6.67;4.87;;;0.90;99.90;;;;;;5065706;28;20418;-80
2021/12/26 06:54:55;;;;;;;6.03;5.20;;;0.90;99.90;;;;;;5065855;28;20405;-79
2021/12/26 06:57:40;;;;;;;11.27;5.43;;;1.10;99.90;;;;;;5065482;28;20386;-79
2021/12/26 07:00:25;;;;;;;9.73;6.63;;;1.10;99.90;;;;;;5066008;28;20413;-79
2021/12/26 07:03:09;;;;;;;4.63;3.20;;;1.30;99.90;;;;;;5066583;28;20524;-79
2021/12/26 07:05:54;;;;;;;12.30;5.60;;;1.30;99.90;;;;;;5073780;28;20405;-79
2021/12/26 07:08:39;;;;;;;6.80;4.87;;;1.10;99.90;;;;;;5075509;28;20413;-79
2021/12/26 07:11:23;;;;;;;8.83;5.27;;;1.10;99.90;;;;;;5074993;28;20454;-79
2021/12/26 07:14:08;;;;;;;8.33;5.40;;;1.00;99.90;;;;;;5073766;28;20398;-79
2021/12/26 07:16:53;;;;;;;10.00;5.43;;;0.90;99.90;;;;;;5070720;28;20503;-79
2021/12/26 07:19:38;;;;;;;9.07;7.67;;;1.20;99.90;;;;;;5067129;28;20413;-79
2021/12/26 07:22:23;;;;;;;6.53;5.10;;;1.20;99.90;;;;;;5063127;28;20779;-78
2021/12/26 07:25:08;;;;;;;7.93;6.23;;;1.20;99.90;;;;;;5058578;28;20428;-78
2021/12/26 07:27:53;;;;;;;9.53;5.17;;;1.10;99.90;;;;;;5072654;28;20748;-80
2021/12/26 07:30:37;;;;;;;8.50;5.17;;;1.10;99.90;;;;;;5072525;28;20388;-80
2021/12/26 07:33:22;;;;;;;9.40;7.97;;;1.10;99.90;;;;;;5072502;28;20839;-80
2021/12/26 07:36:07;;;;;;;11.23;6.10;;;1.30;99.90;;;;;;5071910;28;20436;-80
2021/12/26 07:38:52;;;;;;;6.67;5.00;;;1.30;99.90;;;;;;5072075;28;20715;-80
2021/12/26 07:41:36;;;;;;;5.93;4.70;;;1.30;99.90;;;;;;5072308;28;20390;-80
2021/12/26 07:44:21;;;;;;;10.67;6.50;;;1.10;99.90;;;;;;5071471;28;20390;-80
2021/12/26 07:47:07;;;;;;;7.50;5.40;;;1.00;99.90;;;;;;5072480;28;20449;-79
2021/12/26 07:49:52;;;;;;;7.43;6.50;;;1.30;99.90;;;;;;5073154;28;20394;-80
2021/12/26 07:52:40;;;;;;;8.10;4.63;;;1.50;99.90;;;;;;5073560;28;20376;-79
2021/12/26 07:55:25;;;;;;;10.50;5.53;;;1.30;99.90;;;;;;5074882;28;20498;-79
2021/12/26 07:58:10;;;;;;;6.13;4.90;;;1.40;99.90;;;;;;5073254;28;20421;-80
2021/12/26 08:00:55;;;;;;;9.77;6.03;;;1.30;99.90;;;;;;5071710;28;20408;-80
2021/12/26 08:03:39;;;;;;;7.67;5.27;;;1.30;99.90;;;;;;5072150;28;20393;-80
2021/12/26 08:06:24;;;;;;;8.70;5.80;;;1.30;99.90;;;;;;5069574;28;20660;-80
2021/12/26 08:09:09;;;;;;;13.07;6.00;;;1.50;99.90;;;;;;5070978;28;20413;-80
2021/12/26 08:11:53;;;;;;;5.63;5.07;;;1.60;99.90;;;;;;5070935;28;20421;-80
2021/12/26 08:14:38;;;;;;;11.30;8.50;;;1.50;99.90;;;;;;5070761;28;20879;-80
2021/12/26 08:17:24;;;;;;;10.77;6.87;;;1.30;99.90;;;;;;5068594;28;20386;-79
2021/12/26 08:20:09;;;;;;;11.73;6.43;;;1.40;99.90;;;;;;5068179;28;20421;-79
2021/12/26 08:22:53;;;;;;;7.97;6.60;;;1.50;99.90;;;;;;5067600;28;20976;-79
2021/12/26 08:25:38;;;;;;;7.50;5.33;;;1.50;99.90;;;;;;5069566;28;20413;-79
2021/12/26 08:28:23;;;;;;;10.87;6.67;;;1.30;99.90;;;;;;5068311;28;20492;-79
2021/12/26 08:31:09;;;;;;;13.83;5.50;;;1.30;99.90;;;;;;5066627;28;20906;-79
2021/12/26 08:33:53;;;;;;;9.40;6.57;;;1.30;99.90;;;;;;5068150;28;20475;-79
2021/12/26 08:36:38;;;;;;;5.70;5.17;;;1.30;99.90;;;;;;5066428;28;20394;-79
2021/12/26 08:39:23;;;;;;;14.30;5.90;;;1.30;99.90;;;;;;5067967;28;20486;-79
2021/12/26 08:42:09;;;;;;;7.03;5.80;;;1.20;99.90;;;;;;5067798;28;20390;-79
2021/12/26 08:44:53;;;;;;;9.87;8.00;;;1.20;99.90;;;;;;5066934;28;20465;-79
2021/12/26 08:47:38;;;;;;;11.67;7.20;;;1.20;99.90;;;;;;5068454;28;20446;-79
2021/12/26 08:50:25;;;;;;;7.37;5.17;;;1.30;99.90;;;;;;5068587;28;20866;-79
2021/12/26 08:53:10;;;;;;;7.77;7.03;;;1.40;99.90;;;;;;5068348;28;20409;-79
2021/12/26 08:55:57;;;;;;;10.97;7.13;;;1.20;99.90;;;;;;5066497;28;20364;-79
2021/12/26 08:58:42;;;;;;;10.53;7.60;;;1.40;99.90;;;;;;5066933;28;20485;-79
2021/12/26 09:01:26;;;;;;;9.13;7.43;;;1.30;99.90;;;;;;5067044;28;20512;-79
2021/12/26 09:04:13;;;;;;;7.33;5.63;;;1.50;99.90;;;;;;5066433;28;20398;-79
2021/12/26 09:06:58;;;;;;;7.17;5.13;;;1.30;99.90;;;;;;5066283;28;20447;-79
2021/12/26 09:09:46;;;;;;;11.80;7.40;;;1.30;99.90;;;;;;5068195;28;20386;-79
2021/12/26 09:12:30;;;;;;;10.17;6.80;;;1.20;99.90;;;;;;5066162;28;20390;-79
2021/12/26 09:15:15;;;;;;;12.80;8.13;;;1.30;99.90;;;;;;5066838;28;20372;-79
2021/12/26 09:18:00;;;;;;;7.13;5.50;;;1.20;99.90;;;;;;5067430;28;20386;-79
2021/12/26 09:20:45;;;;;;;5.60;5.07;;;1.20;99.90;;;;;;5066017;28;20389;-79
2021/12/26 09:23:29;;;;;;;11.40;7.67;;;0.90;99.90;;;;;;5067143;28;20857;-79
2021/12/26 09:26:14;;;;;;;10.60;7.23;;;1.10;99.90;;;;;;5071321;28;20360;-78
2021/12/26 09:28:58;;;;;;;6.77;5.73;;;1.20;99.90;;;;;;5071592;28;20373;-79
2021/12/26 09:31:43;;;;;;;8.43;6.10;;;1.20;99.90;;;;;;5064538;28;20474;-79
2021/12/26 09:34:29;;;;;;;6.30;5.20;;;1.20;99.90;;;;;;5064575;28;20387;-79
2021/12/26 09:37:14;;;;;;;17.50;8.00;;;1.00;99.90;;;;;;5066431;28;20369;-79
2021/12/26 09:39:58;;;;;;;10.50;7.80;;;1.20;99.90;;;;;;5064962;28;20440;-79
2021/12/26 09:42:44;;;;;;;8.97;6.40;;;1.30;99.90;;;;;;5063827;28;20470;-79
2021/12/26 09:45:29;;;;;;;10.70;7.60;;;1.30;99.90;;;;;;5065233;28;20858;-79
2021/12/26 09:48:13;;;;;;;10.17;6.30;;;1.50;99.90;;;;;;5066651;28;20461;-79
2021/12/26 09:50:58;;;;;;;9.43;6.33;;;1.40;99.90;;;;;;5065952;28;20501;-79
2021/12/26 09:53:43;;;;;;;13.77;7.07;;;1.30;99.90;;;;;;5067371;28;20394;-79
2021/12/26 09:56:28;;;;;;;10.17;6.53;;;1.30;99.90;;;;;;5066746;28;20394;-79
2021/12/26 09:59:20;;;;;;;17.83;7.87;;;1.60;99.90;;;;;;5065377;28;20386;-79
2021/12/26 10:02:11;;;;;;;8.63;7.27;;;1.70;99.90;;;;;;5065211;28;20392;-79
2021/12/26 10:04:56;;;;;;;8.63;6.57;;;1.60;99.90;;;;;;5066305;28;20390;-79
2021/12/26 10:07:40;;;;;;;13.80;7.10;;;1.60;99.90;;;;;;5065744;28;20449;-80
2021/12/26 10:10:25;;;;;;;12.97;7.93;;;1.60;99.90;;;;;;5066634;28;20403;-80
2021/12/26 10:13:11;;;;;;;14.00;7.13;;;1.60;99.90;;;;;;5065233;28;20417;-79
2021/12/26 10:15:56;;;;;;;18.60;8.33;;;1.60;99.90;;;;;;5065483;28;20372;-79
2021/12/26 10:18:42;;;;;;;12.33;6.40;;;1.50;99.90;;;;;;5065636;28;20387;-79
2021/12/26 10:21:32;;;;;;;6.77;5.87;;;1.60;99.90;;;;;;5066045;28;20425;-79
2021/12/26 10:24:20;;;;;;;12.63;7.77;;;1.60;99.90;;;;;;5065337;28;20394;-79
2021/12/26 10:27:09;;;;;;;9.07;6.80;;;1.40;99.90;;;;;;5066198;28;20443;-79
2021/12/26 10:29:56;;;;;;;13.17;6.83;;;1.40;99.90;;;;;;5065464;28;20397;-79
2021/12/26 10:32:41;;;;;;;15.90;7.50;;;1.60;99.90;;;;;;5066662;28;20386;-79
2021/12/26 10:35:27;;;;;;;8.30;5.07;;;1.70;99.90;;;;;;5067256;28;20393;-79
2021/12/26 10:38:16;;;;;;;15.13;7.67;;;1.70;99.90;;;;;;5066686;28;20423;-79
2021/12/26 10:41:00;;;;;;;8.63;7.20;;;1.60;99.90;;;;;;5067471;28;20398;-79
2021/12/26 10:43:45;;;;;;;7.97;6.37;;;1.70;99.90;;;;;;5066432;28;20390;-79
2021/12/26 10:46:31;;;;;;;11.60;7.10;;;1.90;99.90;;;;;;5068162;28;20432;-79
2021/12/26 10:49:25;;;;;;;8.87;5.37;;;1.80;99.90;;;;;;5073514;28;20405;-79
2021/12/26 10:52:16;;;;;;;10.43;6.20;;;1.90;99.90;;;;;;5074010;28;20417;-79
2021/12/26 10:55:06;;;;;;;6.53;5.47;;;2.00;99.90;;;;;;5071008;28;20501;-79
2021/12/26 10:57:51;;;;;;;11.50;8.10;;;1.90;99.90;;;;;;5070302;28;20486;-79
2021/12/26 11:00:40;;;;;;;9.40;6.40;;;2.00;99.90;;;;;;5070242;28;20365;-79
2021/12/26 11:03:27;;;;;;;10.53;7.27;;;1.90;99.90;;;;;;5076878;28;20384;-79
2021/12/26 11:06:14;;;;;;;13.87;8.10;;;1.90;99.90;;;;;;5070483;28;20390;-79
2021/12/26 11:09:17;;;;;;;13.03;7.50;;;2.00;99.90;;;;;;5070003;28;20722;-79
2021/12/26 11:12:06;;;;;;;7.83;6.37;;;2.10;99.90;;;;;;5070081;28;20472;-79
2021/12/26 11:14:59;;;;;;;9.87;6.30;;;2.10;99.90;;;;;;5070349;28;20390;-79
2021/12/26 11:17:54;;;;;;;15.67;6.87;;;2.20;99.90;;;;;;5069656;28;20468;-79
2021/12/26 11:20:43;;;;;;;8.77;5.97;;;2.30;99.90;;;;;;5071176;28;20394;-79
2021/12/26 11:23:32;;;;;;;13.43;6.40;;;2.50;99.90;;;;;;5069857;28;20443;-79
2021/12/26 11:26:19;;;;;;;11.10;6.70;;;2.40;99.90;;;;;;5070098;28;20903;-79
2021/12/26 11:29:04;;;;;;;12.17;6.60;;;2.40;99.90;;;;;;5071091;28;20372;-79
2021/12/26 11:31:53;;;;;;;12.20;8.00;;;2.50;99.90;;;;;;5069913;28;20437;-79
2021/12/26 11:34:38;;;;;;;10.13;8.67;;;2.30;99.90;;;;;;5070166;28;20438;-79
2021/12/26 11:37:23;;;;;;;11.50;7.53;;;2.00;99.90;;;;;;5067677;28;20360;-79
2021/12/26 11:40:11;;;;;;;16.93;8.47;;;2.10;99.90;;;;;;5070153;28;20476;-80
2021/12/26 11:43:10;;;;;;;11.27;9.43;;;2.00;99.90;;;;;;5069897;28;20394;-79
2021/12/26 11:46:23;;;;;;;12.97;8.60;;;2.10;99.90;;;;;;5073113;28;20450;-79
2021/12/26 11:49:41;;;;;;;13.23;7.37;;;2.10;99.90;;;;;;5072602;28;20406;-80
2021/12/26 11:52:44;;;;;;;7.23;6.30;;;2.30;99.90;;;;;;5073504;28;20368;-79
2021/12/26 11:55:44;;;;;;;15.43;8.70;;;2.40;99.90;;;;;;5069417;28;20357;-79
2021/12/26 11:58:43;;;;;;;12.70;8.80;;;2.20;99.90;;;;;;5068456;28;20410;-79
2021/12/26 12:01:29;;;;;;;12.77;9.00;;;2.00;99.90;;;;;;5070894;28;20460;-79
2021/12/26 12:04:18;;;;;;;7.00;6.20;;;2.30;99.90;;;;;;5072171;28;20397;-79
2021/12/26 12:07:06;;;;;;;24.13;7.70;;;2.50;99.90;;;;;;5067446;28;20954;-78
2021/12/26 12:09:51;;;;;;;18.63;8.33;;;2.70;99.90;;;;;;5061118;28;20368;-79
2021/12/26 12:12:41;;;;;;;17.47;9.40;;;2.90;99.90;;;;;;5070195;28;20376;-80
2021/12/26 12:15:46;;;;;;;30.20;14.60;;;3.10;99.90;;;;;;5069750;28;20384;-79
2021/12/26 12:18:35;;;;;;;16.33;9.13;;;3.20;99.90;;;;;;5071152;28;20381;-79
2021/12/26 12:21:43;;;;;;;12.73;6.30;;;2.80;99.90;;;;;;5071697;28;20434;-80
2021/12/26 12:24:29;;;;;;;17.63;7.73;;;2.80;99.90;;;;;;5071312;28;20414;-78
2021/12/26 12:27:13;;;;;;;11.83;8.07;;;2.50;99.90;;;;;;5070151;28;20481;-80
2021/12/26 12:29:58;;;;;;;9.30;6.37;;;2.20;99.90;;;;;;5070759;28;20409;-80
2021/12/26 12:32:43;;;;;;;8.93;7.97;;;2.20;99.90;;;;;;5070682;28;20372;-80
2021/12/26 12:35:51;;;;;;;17.60;6.90;;;2.20;99.90;;;;;;5069002;28;20927;-80
2021/12/26 12:38:43;;;;;;;9.57;6.07;;;2.00;99.90;;;;;;5069303;28;20382;-79
2021/12/26 12:41:38;;;;;;;10.73;6.77;;;2.10;99.90;;;;;;5069280;28;20433;-79
2021/12/26 12:44:33;;;;;;;8.80;6.40;;;1.90;99.90;;;;;;5069353;28;20398;-79
2021/12/26 12:47:24;;;;;;;9.80;5.43;;;2.00;99.90;;;;;;5064827;28;20501;-78
2021/12/26 12:50:08;;;;;;;6.87;5.87;;;1.90;99.90;;;;;;5060167;28;20365;-79
2021/12/26 12:52:59;;;;;;;9.83;5.30;;;1.80;99.90;;;;;;5067089;28;20426;-80
2021/12/26 12:55:50;;;;;;;8.27;5.37;;;1.90;99.90;;;;;;5070051;28;20391;-79
2021/12/26 12:58:36;;;;;;;14.13;7.77;;;1.90;99.90;;;;;;5069621;28;20418;-80
2021/12/26 13:01:39;;;;;;;5.43;4.80;;;1.80;99.90;;;;;;5069360;28;20511;-79
2021/12/26 13:04:27;;;;;;;9.13;8.23;;;1.90;99.90;;;;;;5068005;28;20459;-79
2021/12/26 13:07:20;;;;;;;10.40;5.33;;;1.80;99.90;;;;;;5052021;28;20490;-79
2021/12/26 13:10:12;;;;;;;8.70;6.37;;;2.00;99.90;;;;;;5067777;28;20398;-79
2021/12/26 13:13:09;;;;;;;9.40;6.53;;;2.00;99.90;;;;;;5070982;28;20444;-79
2021/12/26 13:15:57;;;;;;;9.03;6.50;;;2.30;99.90;;;;;;5072808;28;20827;-79
2021/12/26 13:18:42;;;;;;;10.30;7.00;;;2.30;99.90;;;;;;5072853;28;20426;-79
2021/12/26 13:21:26;;;;;;;9.17;7.07;;;2.20;99.90;;;;;;5072416;28;20929;-79
2021/12/26 13:24:10;;;;;;;9.77;5.90;;;2.30;99.90;;;;;;5074170;28;20435;-79
2021/12/26 13:26:55;;;;;;;7.97;5.67;;;2.30;99.90;;;;;;5073041;28;20551;-79
2021/12/26 13:29:49;;;;;;;11.40;6.07;;;2.40;99.90;;;;;;5073096;28;20425;-79
2021/12/26 13:32:36;;;;;;;8.80;6.70;;;2.10;99.90;;;;;;5072786;28;20412;-79
2021/12/26 13:35:31;;;;;;;8.90;6.63;;;2.10;99.90;;;;;;5073382;28;20384;-79
2021/12/26 13:38:17;;;;;;;10.03;6.97;;;2.30;99.90;;;;;;5073432;28;20854;-79
2021/12/26 13:41:02;;;;;;;6.53;5.40;;;2.30;99.90;;;;;;5074419;28;20368;-79
2021/12/26 13:43:47;;;;;;;11.80;6.90;;;2.50;99.90;;;;;;5074377;28;20394;-79
2021/12/26 13:46:35;;;;;;;10.53;6.67;;;2.30;99.90;;;;;;5074287;28;20488;-79
2021/12/26 13:49:21;;;;;;;6.00;5.50;;;2.30;99.90;;;;;;5072707;28;20415;-79
2021/12/26 13:52:05;;;;;;;10.20;7.37;;;2.30;99.90;;;;;;5072732;28;20390;-79
2021/12/26 13:54:52;;;;;;;8.63;5.77;;;2.20;99.90;;;;;;5074368;28;20369;-79
2021/12/26 13:57:37;;;;;;;7.10;5.37;;;2.10;99.90;;;;;;5073050;28;20387;-79
2021/12/26 14:00:21;;;;;;;8.83;6.20;;;2.10;99.90;;;;;;5073211;28;20429;-79
2021/12/26 14:03:07;;;;;;;10.60;7.40;;;2.10;99.90;;;;;;5074144;28;20390;-79
2021/12/26 14:05:52;;;;;;;9.13;5.57;;;2.10;99.90;;;;;;5073306;28;20432;-79
2021/12/26 14:08:37;;;;;;;9.90;7.53;;;2.30;99.90;;;;;;5073838;28;20460;-79
2021/12/26 14:11:21;;;;;;;9.47;7.20;;;2.20;99.90;;;;;;5073016;28;20743;-79
2021/12/26 14:14:08;;;;;;;9.63;5.80;;;2.10;99.90;;;;;;5068913;28;20437;-79
2021/12/26 14:16:52;;;;;;;15.07;6.33;;;2.10;99.90;;;;;;5068715;28;20502;-79
2021/12/26 14:19:37;;;;;;;8.00;5.30;;;2.10;99.90;;;;;;5069219;28;20457;-79
2021/12/26 14:22:26;;;;;;;9.27;6.27;;;2.20;99.90;;;;;;5067181;28;20487;-79
2021/12/26 14:25:11;;;;;;;10.07;7.13;;;2.20;99.90;;;;;;5067033;28;20409;-79
2021/12/26 14:27:55;;;;;;;19.30;9.80;;;2.40;99.90;;;;;;5067505;28;20493;-79
2021/12/26 14:30:40;;;;;;;16.03;9.67;;;2.40;99.90;;;;;;5067353;28;20373;-79
2021/12/26 14:33:31;;;;;;;16.43;11.80;;;2.60;99.90;;;;;;5076049;28;20390;-79
2021/12/26 14:36:16;;;;;;;13.90;7.37;;;2.80;99.90;;;;;;5076833;28;20416;-79